sensor_id;sensor_type;location;lat;lon;timestamp;temperature;humidity
50758;DHT22;36732;47.980;11.652;2024-02-15T00:00:43;10.60;61.30
50758;DHT22;36732;47.980;11.652;2024-02-15T00:03:10;10.60;61.30
50758;DHT22;36732;47.980;11.652;2024-02-15T00:05:39;10.60;61.30
50758;DHT22;36732;47.980;11.652;2024-02-15T00:08:05;10.60;61.40
50758;DHT22;36732;47.980;11.652;2024-02-15T00:10:31;10.60;61.40
50758;DHT22;36732;47.980;11.652;2024-02-15T00:12:58;10.60;61.30
50758;DHT22;36732;47.980;11.652;2024-02-15T00:15:24;10.60;61.30
50758;DHT22;36732;47.980;11.652;2024-02-15T00:17:50;10.60;61.40
50758;DHT22;36732;47.980;11.652;2024-02-15T00:20:17;10.60;61.50
50758;DHT22;36732;47.980;11.652;2024-02-15T00:22:43;10.60;61.50
50758;DHT22;36732;47.980;11.652;2024-02-15T00:25:09;10.60;61.50
50758;DHT22;36732;47.980;11.652;2024-02-15T00:27:36;10.60;61.60
50758;DHT22;36732;47.980;11.652;2024-02-15T00:30:03;10.60;61.60
50758;DHT22;36732;47.980;11.652;2024-02-15T00:32:33;10.50;61.50
50758;DHT22;36732;47.980;11.652;2024-02-15T00:34:59;10.60;61.60
50758;DHT22;36732;47.980;11.652;2024-02-15T00:37:24;10.50;61.60
50758;DHT22;36732;47.980;11.652;2024-02-15T00:39:50;10.60;61.70
50758;DHT22;36732;47.980;11.652;2024-02-15T00:42:16;10.50;62.20
50758;DHT22;36732;47.980;11.652;2024-02-15T00:44:42;10.60;61.60
50758;DHT22;36732;47.980;11.652;2024-02-15T00:47:09;10.60;61.70
50758;DHT22;36732;47.980;11.652;2024-02-15T00:49:36;10.60;61.70
50758;DHT22;36732;47.980;11.652;2024-02-15T00:52:02;10.60;61.70
50758;DHT22;36732;47.980;11.652;2024-02-15T00:54:27;10.60;61.70
50758;DHT22;36732;47.980;11.652;2024-02-15T00:56:53;10.60;61.60
50758;DHT22;36732;47.980;11.652;2024-02-15T00:59:19;10.60;61.70
50758;DHT22;36732;47.980;11.652;2024-02-15T01:01:44;10.60;61.70
50758;DHT22;36732;47.980;11.652;2024-02-15T01:04:12;10.60;61.60
50758;DHT22;36732;47.980;11.652;2024-02-15T01:06:37;10.60;61.60
50758;DHT22;36732;47.980;11.652;2024-02-15T01:09:03;10.60;61.50
50758;DHT22;36732;47.980;11.652;2024-02-15T01:11:30;10.60;61.50
50758;DHT22;36732;47.980;11.652;2024-02-15T01:13:57;10.60;61.50
50758;DHT22;36732;47.980;11.652;2024-02-15T01:16:24;10.60;61.50
50758;DHT22;36732;47.980;11.652;2024-02-15T01:18:52;10.60;61.40
50758;DHT22;36732;47.980;11.652;2024-02-15T01:21:18;10.60;61.40
50758;DHT22;36732;47.980;11.652;2024-02-15T01:23:44;10.60;61.60
50758;DHT22;36732;47.980;11.652;2024-02-15T01:26:12;10.60;61.50
50758;DHT22;36732;47.980;11.652;2024-02-15T01:28:40;10.60;61.50
50758;DHT22;36732;47.980;11.652;2024-02-15T01:31:10;10.60;61.50
50758;DHT22;36732;47.980;11.652;2024-02-15T01:33:37;10.60;61.50
50758;DHT22;36732;47.980;11.652;2024-02-15T01:36:06;10.60;61.50
50758;DHT22;36732;47.980;11.652;2024-02-15T01:38:32;10.60;61.50
50758;DHT22;36732;47.980;11.652;2024-02-15T01:40:57;10.60;61.50
50758;DHT22;36732;47.980;11.652;2024-02-15T01:43:23;10.60;61.40
50758;DHT22;36732;47.980;11.652;2024-02-15T01:45:49;10.60;61.40
50758;DHT22;36732;47.980;11.652;2024-02-15T01:48:15;10.60;61.40
50758;DHT22;36732;47.980;11.652;2024-02-15T01:50:41;10.60;61.30
50758;DHT22;36732;47.980;11.652;2024-02-15T01:53:09;10.60;61.30
50758;DHT22;36732;47.980;11.652;2024-02-15T01:55:36;10.60;61.30
50758;DHT22;36732;47.980;11.652;2024-02-15T01:58:03;10.60;61.30
50758;DHT22;36732;47.980;11.652;2024-02-15T02:00:30;10.60;61.30
50758;DHT22;36732;47.980;11.652;2024-02-15T02:02:57;10.60;61.10
50758;DHT22;36732;47.980;11.652;2024-02-15T02:05:27;10.60;61.10
50758;DHT22;36732;47.980;11.652;2024-02-15T02:07:53;10.60;61.10
50758;DHT22;36732;47.980;11.652;2024-02-15T02:10:20;10.60;61.10
50758;DHT22;36732;47.980;11.652;2024-02-15T02:12:45;10.60;61.00
50758;DHT22;36732;47.980;11.652;2024-02-15T02:15:11;10.60;61.20
50758;DHT22;36732;47.980;11.652;2024-02-15T02:17:37;10.60;61.10
50758;DHT22;36732;47.980;11.652;2024-02-15T02:20:05;10.50;61.00
50758;DHT22;36732;47.980;11.652;2024-02-15T02:22:34;10.50;61.10
50758;DHT22;36732;47.980;11.652;2024-02-15T02:25:05;10.60;61.20
50758;DHT22;36732;47.980;11.652;2024-02-15T02:27:33;10.50;61.20
50758;DHT22;36732;47.980;11.652;2024-02-15T02:29:59;10.50;61.20
50758;DHT22;36732;47.980;11.652;2024-02-15T02:32:26;10.50;61.30
50758;DHT22;36732;47.980;11.652;2024-02-15T02:34:52;10.50;61.30
50758;DHT22;36732;47.980;11.652;2024-02-15T02:37:23;10.50;61.30
50758;DHT22;36732;47.980;11.652;2024-02-15T02:39:50;10.50;61.40
50758;DHT22;36732;47.980;11.652;2024-02-15T02:42:16;10.50;61.50
50758;DHT22;36732;47.980;11.652;2024-02-15T02:44:42;10.50;61.50
50758;DHT22;36732;47.980;11.652;2024-02-15T02:47:07;10.50;61.60
50758;DHT22;36732;47.980;11.652;2024-02-15T02:49:35;10.50;61.60
50758;DHT22;36732;47.980;11.652;2024-02-15T02:52:02;10.50;61.70
50758;DHT22;36732;47.980;11.652;2024-02-15T02:54:28;10.50;61.60
50758;DHT22;36732;47.980;11.652;2024-02-15T02:56:54;10.50;61.60
50758;DHT22;36732;47.980;11.652;2024-02-15T02:59:20;10.50;61.70
50758;DHT22;36732;47.980;11.652;2024-02-15T03:01:46;10.50;61.70
50758;DHT22;36732;47.980;11.652;2024-02-15T03:04:15;10.50;62.40
50758;DHT22;36732;47.980;11.652;2024-02-15T03:06:42;10.50;61.80
50758;DHT22;36732;47.980;11.652;2024-02-15T03:09:08;10.50;61.80
50758;DHT22;36732;47.980;11.652;2024-02-15T03:11:35;10.50;61.70
50758;DHT22;36732;47.980;11.652;2024-02-15T03:14:02;10.50;61.70
50758;DHT22;36732;47.980;11.652;2024-02-15T03:16:32;10.50;61.80
50758;DHT22;36732;47.980;11.652;2024-02-15T03:19:01;10.50;61.80
50758;DHT22;36732;47.980;11.652;2024-02-15T03:21:28;10.50;61.80
50758;DHT22;36732;47.980;11.652;2024-02-15T03:23:54;10.50;61.80
50758;DHT22;36732;47.980;11.652;2024-02-15T03:26:32;10.50;61.80
50758;DHT22;36732;47.980;11.652;2024-02-15T03:29:05;10.50;62.00
50758;DHT22;36732;47.980;11.652;2024-02-15T03:31:33;10.50;61.80
50758;DHT22;36732;47.980;11.652;2024-02-15T03:34:04;10.50;61.70
50758;DHT22;36732;47.980;11.652;2024-02-15T03:36:30;10.50;61.70
50758;DHT22;36732;47.980;11.652;2024-02-15T03:38:55;10.40;61.60
50758;DHT22;36732;47.980;11.652;2024-02-15T03:41:22;10.50;61.70
50758;DHT22;36732;47.980;11.652;2024-02-15T03:43:48;10.40;61.60
50758;DHT22;36732;47.980;11.652;2024-02-15T03:46:14;10.40;61.60
50758;DHT22;36732;47.980;11.652;2024-02-15T03:48:43;10.40;61.60
50758;DHT22;36732;47.980;11.652;2024-02-15T03:51:16;10.40;61.60
50758;DHT22;36732;47.980;11.652;2024-02-15T03:53:44;10.40;61.60
50758;DHT22;36732;47.980;11.652;2024-02-15T03:56:09;10.40;61.50
50758;DHT22;36732;47.980;11.652;2024-02-15T03:58:35;10.40;61.50
50758;DHT22;36732;47.980;11.652;2024-02-15T04:01:02;10.40;61.50
50758;DHT22;36732;47.980;11.652;2024-02-15T04:03:32;10.40;61.60
50758;DHT22;36732;47.980;11.652;2024-02-15T04:05:59;10.40;61.50
50758;DHT22;36732;47.980;11.652;2024-02-15T04:08:25;10.40;61.50
50758;DHT22;36732;47.980;11.652;2024-02-15T04:10:51;10.40;61.50
50758;DHT22;36732;47.980;11.652;2024-02-15T04:13:17;10.40;61.50
50758;DHT22;36732;47.980;11.652;2024-02-15T04:15:43;10.40;61.50
50758;DHT22;36732;47.980;11.652;2024-02-15T04:18:09;10.40;61.50
50758;DHT22;36732;47.980;11.652;2024-02-15T04:20:37;10.40;61.50
50758;DHT22;36732;47.980;11.652;2024-02-15T04:23:03;10.40;61.50
50758;DHT22;36732;47.980;11.652;2024-02-15T04:25:30;10.40;61.50
50758;DHT22;36732;47.980;11.652;2024-02-15T04:27:56;10.40;61.50
50758;DHT22;36732;47.980;11.652;2024-02-15T04:30:24;10.40;61.50
50758;DHT22;36732;47.980;11.652;2024-02-15T04:32:50;10.40;61.40
50758;DHT22;36732;47.980;11.652;2024-02-15T04:35:17;10.40;61.30
50758;DHT22;36732;47.980;11.652;2024-02-15T04:37:42;10.40;61.20
50758;DHT22;36732;47.980;11.652;2024-02-15T04:40:08;10.40;61.20
50758;DHT22;36732;47.980;11.652;2024-02-15T04:42:35;10.40;61.20
50758;DHT22;36732;47.980;11.652;2024-02-15T04:45:05;10.40;61.20
50758;DHT22;36732;47.980;11.652;2024-02-15T04:47:35;10.30;61.10
50758;DHT22;36732;47.980;11.652;2024-02-15T04:50:01;10.30;61.00
50758;DHT22;36732;47.980;11.652;2024-02-15T04:52:27;10.30;61.00
50758;DHT22;36732;47.980;11.652;2024-02-15T04:54:53;10.30;60.90
50758;DHT22;36732;47.980;11.652;2024-02-15T04:57:24;10.30;60.80
50758;DHT22;36732;47.980;11.652;2024-02-15T04:59:53;10.30;60.60
50758;DHT22;36732;47.980;11.652;2024-02-15T05:02:20;10.30;60.50
50758;DHT22;36732;47.980;11.652;2024-02-15T05:04:47;10.20;60.50
50758;DHT22;36732;47.980;11.652;2024-02-15T05:07:13;10.20;60.40
50758;DHT22;36732;47.980;11.652;2024-02-15T05:09:42;10.20;60.30
50758;DHT22;36732;47.980;11.652;2024-02-15T05:12:08;10.20;60.20
50758;DHT22;36732;47.980;11.652;2024-02-15T05:14:34;10.20;60.30
50758;DHT22;36732;47.980;11.652;2024-02-15T05:17:01;10.10;60.40
50758;DHT22;36732;47.980;11.652;2024-02-15T05:19:27;10.10;60.50
50758;DHT22;36732;47.980;11.652;2024-02-15T05:21:55;10.10;60.50
50758;DHT22;36732;47.980;11.652;2024-02-15T05:24:20;10.10;60.60
50758;DHT22;36732;47.980;11.652;2024-02-15T05:26:46;10.10;60.60
50758;DHT22;36732;47.980;11.652;2024-02-15T05:29:13;10.10;60.60
50758;DHT22;36732;47.980;11.652;2024-02-15T05:31:38;10.00;60.50
50758;DHT22;36732;47.980;11.652;2024-02-15T05:34:06;10.00;60.50
50758;DHT22;36732;47.980;11.652;2024-02-15T05:36:33;10.00;60.50
50758;DHT22;36732;47.980;11.652;2024-02-15T05:38:59;10.00;60.40
50758;DHT22;36732;47.980;11.652;2024-02-15T05:41:25;10.00;60.40
50758;DHT22;36732;47.980;11.652;2024-02-15T05:43:51;10.00;60.30
50758;DHT22;36732;47.980;11.652;2024-02-15T05:46:20;10.00;60.30
50758;DHT22;36732;47.980;11.652;2024-02-15T05:48:48;10.00;60.40
50758;DHT22;36732;47.980;11.652;2024-02-15T05:51:14;10.00;60.30
50758;DHT22;36732;47.980;11.652;2024-02-15T05:53:40;9.90;60.20
50758;DHT22;36732;47.980;11.652;2024-02-15T05:56:07;9.90;60.10
50758;DHT22;36732;47.980;11.652;2024-02-15T05:58:34;9.90;60.00
50758;DHT22;36732;47.980;11.652;2024-02-15T06:01:03;9.90;60.00
50758;DHT22;36732;47.980;11.652;2024-02-15T06:03:33;9.90;59.90
50758;DHT22;36732;47.980;11.652;2024-02-15T06:06:04;9.90;59.90
50758;DHT22;36732;47.980;11.652;2024-02-15T06:08:33;9.90;59.80
50758;DHT22;36732;47.980;11.652;2024-02-15T06:10:59;9.90;59.80
50758;DHT22;36732;47.980;11.652;2024-02-15T06:13:26;9.80;59.70
50758;DHT22;36732;47.980;11.652;2024-02-15T06:15:52;9.80;59.70
50758;DHT22;36732;47.980;11.652;2024-02-15T06:18:29;9.80;59.60
50758;DHT22;36732;47.980;11.652;2024-02-15T06:20:59;9.80;59.60
50758;DHT22;36732;47.980;11.652;2024-02-15T06:23:25;9.80;59.60
50758;DHT22;36732;47.980;11.652;2024-02-15T06:25:54;9.80;59.60
50758;DHT22;36732;47.980;11.652;2024-02-15T06:28:21;9.80;59.40
50758;DHT22;36732;47.980;11.652;2024-02-15T06:31:07;9.70;59.30
50758;DHT22;36732;47.980;11.652;2024-02-15T06:33:52;9.70;58.90
50758;DHT22;36732;47.980;11.652;2024-02-15T06:36:52;9.70;59.00
50758;DHT22;36732;47.980;11.652;2024-02-15T06:39:36;9.60;58.80
50758;DHT22;36732;47.980;11.652;2024-02-15T06:42:15;9.60;58.90
50758;DHT22;36732;47.980;11.652;2024-02-15T06:44:45;9.60;58.80
50758;DHT22;36732;47.980;11.652;2024-02-15T06:47:12;9.60;58.90
50758;DHT22;36732;47.980;11.652;2024-02-15T06:49:39;9.50;58.90
50758;DHT22;36732;47.980;11.652;2024-02-15T06:52:09;9.50;58.90
50758;DHT22;36732;47.980;11.652;2024-02-15T06:54:40;9.50;59.00
50758;DHT22;36732;47.980;11.652;2024-02-15T06:57:07;9.50;59.20
50758;DHT22;36732;47.980;11.652;2024-02-15T06:59:33;9.40;59.30
50758;DHT22;36732;47.980;11.652;2024-02-15T07:02:00;9.40;59.40
50758;DHT22;36732;47.980;11.652;2024-02-15T07:04:26;9.40;59.50
50758;DHT22;36732;47.980;11.652;2024-02-15T07:06:53;9.40;59.60
50758;DHT22;36732;47.980;11.652;2024-02-15T07:09:20;9.40;59.70
50758;DHT22;36732;47.980;11.652;2024-02-15T07:11:48;9.40;59.70
50758;DHT22;36732;47.980;11.652;2024-02-15T07:14:14;9.40;59.70
50758;DHT22;36732;47.980;11.652;2024-02-15T07:16:44;9.40;59.80
50758;DHT22;36732;47.980;11.652;2024-02-15T07:19:13;9.40;59.80
50758;DHT22;36732;47.980;11.652;2024-02-15T07:21:41;9.50;60.00
50758;DHT22;36732;47.980;11.652;2024-02-15T07:24:07;9.40;60.00
50758;DHT22;36732;47.980;11.652;2024-02-15T07:26:33;9.40;60.00
50758;DHT22;36732;47.980;11.652;2024-02-15T07:29:00;9.50;60.10
50758;DHT22;36732;47.980;11.652;2024-02-15T07:31:29;9.50;60.10
50758;DHT22;36732;47.980;11.652;2024-02-15T07:33:56;9.50;60.20
50758;DHT22;36732;47.980;11.652;2024-02-15T07:36:22;9.50;60.20
50758;DHT22;36732;47.980;11.652;2024-02-15T07:38:52;9.50;60.30
50758;DHT22;36732;47.980;11.652;2024-02-15T07:41:20;9.50;60.30
50758;DHT22;36732;47.980;11.652;2024-02-15T07:43:51;9.50;61.00
50758;DHT22;36732;47.980;11.652;2024-02-15T07:46:20;9.60;60.50
50758;DHT22;36732;47.980;11.652;2024-02-15T07:48:47;9.60;60.50
50758;DHT22;36732;47.980;11.652;2024-02-15T07:51:14;9.60;60.50
50758;DHT22;36732;47.980;11.652;2024-02-15T07:53:43;9.60;60.50
50758;DHT22;36732;47.980;11.652;2024-02-15T07:56:10;9.60;60.60
50758;DHT22;36732;47.980;11.652;2024-02-15T07:58:47;9.60;60.60
50758;DHT22;36732;47.980;11.652;2024-02-15T08:01:16;9.70;60.80
50758;DHT22;36732;47.980;11.652;2024-02-15T08:03:42;9.70;60.80
50758;DHT22;36732;47.980;11.652;2024-02-15T08:06:15;9.70;60.80
50758;DHT22;36732;47.980;11.652;2024-02-15T08:08:43;9.70;60.90
50758;DHT22;36732;47.980;11.652;2024-02-15T08:11:13;9.80;60.90
50758;DHT22;36732;47.980;11.652;2024-02-15T08:13:45;9.80;60.90
50758;DHT22;36732;47.980;11.652;2024-02-15T08:16:24;9.80;60.80
50758;DHT22;36732;47.980;11.652;2024-02-15T08:18:51;9.80;60.80
50758;DHT22;36732;47.980;11.652;2024-02-15T08:21:29;9.90;60.80
50758;DHT22;36732;47.980;11.652;2024-02-15T08:23:58;9.90;60.80
50758;DHT22;36732;47.980;11.652;2024-02-15T08:26:25;9.90;60.80
50758;DHT22;36732;47.980;11.652;2024-02-15T08:28:51;9.90;61.10
50758;DHT22;36732;47.980;11.652;2024-02-15T08:31:18;9.90;60.80
50758;DHT22;36732;47.980;11.652;2024-02-15T08:33:45;10.00;60.90
50758;DHT22;36732;47.980;11.652;2024-02-15T08:36:11;10.00;60.90
50758;DHT22;36732;47.980;11.652;2024-02-15T08:38:39;10.00;61.60
50758;DHT22;36732;47.980;11.652;2024-02-15T08:41:06;10.10;61.10
50758;DHT22;36732;47.980;11.652;2024-02-15T08:43:33;10.10;61.00
50758;DHT22;36732;47.980;11.652;2024-02-15T08:45:59;10.10;61.10
50758;DHT22;36732;47.980;11.652;2024-02-15T08:48:25;10.10;61.20
50758;DHT22;36732;47.980;11.652;2024-02-15T08:50:54;10.10;61.20
50758;DHT22;36732;47.980;11.652;2024-02-15T08:53:19;10.10;61.30
50758;DHT22;36732;47.980;11.652;2024-02-15T08:55:47;10.20;61.30
50758;DHT22;36732;47.980;11.652;2024-02-15T08:58:13;10.20;61.40
50758;DHT22;36732;47.980;11.652;2024-02-15T09:00:39;10.20;61.50
50758;DHT22;36732;47.980;11.652;2024-02-15T09:03:10;10.20;61.60
50758;DHT22;36732;47.980;11.652;2024-02-15T09:05:37;10.30;62.20
50758;DHT22;36732;47.980;11.652;2024-02-15T09:08:03;10.30;61.60
50758;DHT22;36732;47.980;11.652;2024-02-15T09:10:32;10.30;61.60
50758;DHT22;36732;47.980;11.652;2024-02-15T09:12:58;10.40;61.70
50758;DHT22;36732;47.980;11.652;2024-02-15T09:15:24;10.40;61.70
50758;DHT22;36732;47.980;11.652;2024-02-15T09:17:50;10.40;61.70
50758;DHT22;36732;47.980;11.652;2024-02-15T09:20:17;10.40;61.80
50758;DHT22;36732;47.980;11.652;2024-02-15T09:22:50;10.50;61.90
50758;DHT22;36732;47.980;11.652;2024-02-15T09:25:17;10.50;61.90
50758;DHT22;36732;47.980;11.652;2024-02-15T09:27:44;10.50;61.80
50758;DHT22;36732;47.980;11.652;2024-02-15T09:30:11;10.50;61.90
50758;DHT22;36732;47.980;11.652;2024-02-15T09:32:38;10.60;61.90
50758;DHT22;36732;47.980;11.652;2024-02-15T09:35:05;10.60;62.20
50758;DHT22;36732;47.980;11.652;2024-02-15T09:37:38;10.60;62.00
50758;DHT22;36732;47.980;11.652;2024-02-15T09:40:10;10.60;62.00
50758;DHT22;36732;47.980;11.652;2024-02-15T09:42:38;10.70;62.10
50758;DHT22;36732;47.980;11.652;2024-02-15T09:45:05;10.70;62.20
50758;DHT22;36732;47.980;11.652;2024-02-15T09:47:35;10.70;62.30
50758;DHT22;36732;47.980;11.652;2024-02-15T09:50:09;10.70;62.50
50758;DHT22;36732;47.980;11.652;2024-02-15T09:52:50;10.80;62.60
50758;DHT22;36732;47.980;11.652;2024-02-15T09:55:17;10.80;62.90
50758;DHT22;36732;47.980;11.652;2024-02-15T09:57:46;10.80;62.90
50758;DHT22;36732;47.980;11.652;2024-02-15T10:00:13;10.90;62.90
50758;DHT22;36732;47.980;11.652;2024-02-15T10:02:47;10.90;62.90
50758;DHT22;36732;47.980;11.652;2024-02-15T10:05:13;10.90;63.00
50758;DHT22;36732;47.980;11.652;2024-02-15T10:07:40;10.90;63.00
50758;DHT22;36732;47.980;11.652;2024-02-15T10:10:22;10.90;63.00
50758;DHT22;36732;47.980;11.652;2024-02-15T10:12:52;11.00;63.40
50758;DHT22;36732;47.980;11.652;2024-02-15T10:18:10;11.00;63.40
50758;DHT22;36732;47.980;11.652;2024-02-15T10:20:41;11.00;63.40
50758;DHT22;36732;47.980;11.652;2024-02-15T10:25:37;11.10;63.40
50758;DHT22;36732;47.980;11.652;2024-02-15T10:33:02;11.20;63.40
50758;DHT22;36732;47.980;11.652;2024-02-15T10:35:33;11.20;63.40
50758;DHT22;36732;47.980;11.652;2024-02-15T10:38:09;11.20;63.40
50758;DHT22;36732;47.980;11.652;2024-02-15T10:40:37;11.20;63.50
50758;DHT22;36732;47.980;11.652;2024-02-15T10:43:04;11.30;63.50
50758;DHT22;36732;47.980;11.652;2024-02-15T10:45:31;11.30;63.40
50758;DHT22;36732;47.980;11.652;2024-02-15T10:47:58;11.30;63.40
50758;DHT22;36732;47.980;11.652;2024-02-15T10:50:24;11.30;63.30
50758;DHT22;36732;47.980;11.652;2024-02-15T10:52:57;11.30;63.30
50758;DHT22;36732;47.980;11.652;2024-02-15T10:58:05;11.40;63.30
50758;DHT22;36732;47.980;11.652;2024-02-15T11:00:35;11.40;63.10
50758;DHT22;36732;47.980;11.652;2024-02-15T11:03:07;11.40;63.20
50758;DHT22;36732;47.980;11.652;2024-02-15T11:05:37;11.40;63.30
50758;DHT22;36732;47.980;11.652;2024-02-15T11:08:08;11.50;63.40
50758;DHT22;36732;47.980;11.652;2024-02-15T11:10:38;11.50;63.50
50758;DHT22;36732;47.980;11.652;2024-02-15T11:13:08;11.50;63.40
50758;DHT22;36732;47.980;11.652;2024-02-15T11:15:45;11.50;63.40
50758;DHT22;36732;47.980;11.652;2024-02-15T11:18:44;11.50;63.50
50758;DHT22;36732;47.980;11.652;2024-02-15T11:21:12;11.50;63.70
50758;DHT22;36732;47.980;11.652;2024-02-15T11:23:38;11.60;63.60
50758;DHT22;36732;47.980;11.652;2024-02-15T11:26:04;11.60;63.60
50758;DHT22;36732;47.980;11.652;2024-02-15T11:28:37;11.60;63.60
50758;DHT22;36732;47.980;11.652;2024-02-15T11:31:07;11.70;63.80
50758;DHT22;36732;47.980;11.652;2024-02-15T11:33:35;11.70;63.70
50758;DHT22;36732;47.980;11.652;2024-02-15T11:38:34;11.70;64.10
50758;DHT22;36732;47.980;11.652;2024-02-15T11:41:05;11.70;63.80
50758;DHT22;36732;47.980;11.652;2024-02-15T11:46:20;11.80;63.80
50758;DHT22;36732;47.980;11.652;2024-02-15T11:48:50;11.80;63.70
50758;DHT22;36732;47.980;11.652;2024-02-15T11:51:35;11.80;63.70
50758;DHT22;36732;47.980;11.652;2024-02-15T11:54:12;11.80;63.70
50758;DHT22;36732;47.980;11.652;2024-02-15T11:59:10;11.90;63.70
50758;DHT22;36732;47.980;11.652;2024-02-15T12:01:44;11.90;63.60
50758;DHT22;36732;47.980;11.652;2024-02-15T12:04:32;11.90;63.70
50758;DHT22;36732;47.980;11.652;2024-02-15T12:07:16;11.90;63.60
50758;DHT22;36732;47.980;11.652;2024-02-15T12:10:01;12.00;63.60
50758;DHT22;36732;47.980;11.652;2024-02-15T12:12:52;12.00;63.50
50758;DHT22;36732;47.980;11.652;2024-02-15T12:15:37;12.00;63.60
50758;DHT22;36732;47.980;11.652;2024-02-15T12:18:38;12.00;63.50
50758;DHT22;36732;47.980;11.652;2024-02-15T12:21:13;12.00;63.40
50758;DHT22;36732;47.980;11.652;2024-02-15T12:23:41;12.10;63.60
50758;DHT22;36732;47.980;11.652;2024-02-15T12:26:07;12.10;63.50
50758;DHT22;36732;47.980;11.652;2024-02-15T12:28:33;12.10;63.40
50758;DHT22;36732;47.980;11.652;2024-02-15T12:31:01;12.10;63.40
50758;DHT22;36732;47.980;11.652;2024-02-15T12:33:27;12.10;63.30
50758;DHT22;36732;47.980;11.652;2024-02-15T12:36:06;12.10;63.20
50758;DHT22;36732;47.980;11.652;2024-02-15T12:38:33;12.10;63.00
50758;DHT22;36732;47.980;11.652;2024-02-15T12:41:17;12.20;63.20
50758;DHT22;36732;47.980;11.652;2024-02-15T12:43:46;12.20;63.10
50758;DHT22;36732;47.980;11.652;2024-02-15T12:46:21;12.20;63.00
50758;DHT22;36732;47.980;11.652;2024-02-15T12:48:47;12.20;63.00
50758;DHT22;36732;47.980;11.652;2024-02-15T12:51:15;12.20;63.00
50758;DHT22;36732;47.980;11.652;2024-02-15T12:53:41;12.20;63.00
50758;DHT22;36732;47.980;11.652;2024-02-15T12:56:07;12.20;63.10
50758;DHT22;36732;47.980;11.652;2024-02-15T12:58:35;12.20;63.10
50758;DHT22;36732;47.980;11.652;2024-02-15T13:01:01;12.20;63.20
50758;DHT22;36732;47.980;11.652;2024-02-15T13:03:27;12.30;63.30
50758;DHT22;36732;47.980;11.652;2024-02-15T13:05:53;12.30;63.50
50758;DHT22;36732;47.980;11.652;2024-02-15T13:08:19;12.30;63.40
50758;DHT22;36732;47.980;11.652;2024-02-15T13:10:45;12.30;63.50
50758;DHT22;36732;47.980;11.652;2024-02-15T13:13:12;12.30;63.60
50758;DHT22;36732;47.980;11.652;2024-02-15T13:15:42;12.40;63.60
50758;DHT22;36732;47.980;11.652;2024-02-15T13:18:09;12.40;63.60
50758;DHT22;36732;47.980;11.652;2024-02-15T13:20:36;12.40;63.40
50758;DHT22;36732;47.980;11.652;2024-02-15T13:23:09;12.40;63.20
50758;DHT22;36732;47.980;11.652;2024-02-15T13:25:49;12.50;63.20
50758;DHT22;36732;47.980;11.652;2024-02-15T13:28:15;12.50;62.90
50758;DHT22;36732;47.980;11.652;2024-02-15T13:30:41;12.50;62.80
50758;DHT22;36732;47.980;11.652;2024-02-15T13:33:10;12.50;62.70
50758;DHT22;36732;47.980;11.652;2024-02-15T13:35:39;12.60;62.80
50758;DHT22;36732;47.980;11.652;2024-02-15T13:38:04;12.60;62.70
50758;DHT22;36732;47.980;11.652;2024-02-15T13:40:30;12.60;62.70
50758;DHT22;36732;47.980;11.652;2024-02-15T13:43:00;12.60;62.40
50758;DHT22;36732;47.980;11.652;2024-02-15T13:45:31;12.70;62.20
50758;DHT22;36732;47.980;11.652;2024-02-15T13:48:03;12.70;62.20
50758;DHT22;36732;47.980;11.652;2024-02-15T13:50:30;12.70;61.90
50758;DHT22;36732;47.980;11.652;2024-02-15T13:52:57;12.70;61.60
50758;DHT22;36732;47.980;11.652;2024-02-15T13:55:23;12.70;61.30
50758;DHT22;36732;47.980;11.652;2024-02-15T13:57:53;12.70;60.90
50758;DHT22;36732;47.980;11.652;2024-02-15T14:00:20;12.80;61.00
50758;DHT22;36732;47.980;11.652;2024-02-15T14:02:54;12.80;61.00
50758;DHT22;36732;47.980;11.652;2024-02-15T14:05:25;12.80;60.30
50758;DHT22;36732;47.980;11.652;2024-02-15T14:07:55;12.80;60.60
50758;DHT22;36732;47.980;11.652;2024-02-15T14:10:23;12.80;60.50
50758;DHT22;36732;47.980;11.652;2024-02-15T14:12:50;12.90;60.30
50758;DHT22;36732;47.980;11.652;2024-02-15T14:15:24;12.90;60.20
50758;DHT22;36732;47.980;11.652;2024-02-15T14:17:50;12.90;60.20
50758;DHT22;36732;47.980;11.652;2024-02-15T14:20:15;12.90;60.20
50758;DHT22;36732;47.980;11.652;2024-02-15T14:22:46;12.90;60.30
50758;DHT22;36732;47.980;11.652;2024-02-15T14:25:22;12.90;60.20
50758;DHT22;36732;47.980;11.652;2024-02-15T14:27:48;12.90;60.10
50758;DHT22;36732;47.980;11.652;2024-02-15T14:30:14;12.90;60.20
50758;DHT22;36732;47.980;11.652;2024-02-15T14:32:58;12.90;60.10
50758;DHT22;36732;47.980;11.652;2024-02-15T14:35:31;13.00;60.00
50758;DHT22;36732;47.980;11.652;2024-02-15T14:38:09;13.00;60.00
50758;DHT22;36732;47.980;11.652;2024-02-15T14:40:40;12.90;59.80
50758;DHT22;36732;47.980;11.652;2024-02-15T14:43:13;13.00;59.90
50758;DHT22;36732;47.980;11.652;2024-02-15T14:45:40;13.00;59.90
50758;DHT22;36732;47.980;11.652;2024-02-15T14:48:07;13.00;60.00
50758;DHT22;36732;47.980;11.652;2024-02-15T14:50:38;13.00;60.00
50758;DHT22;36732;47.980;11.652;2024-02-15T14:53:06;12.90;59.90
50758;DHT22;36732;47.980;11.652;2024-02-15T14:55:36;13.00;60.00
50758;DHT22;36732;47.980;11.652;2024-02-15T14:58:05;13.00;60.00
50758;DHT22;36732;47.980;11.652;2024-02-15T15:00:33;13.00;60.00
50758;DHT22;36732;47.980;11.652;2024-02-15T15:02:59;13.00;60.10
50758;DHT22;36732;47.980;11.652;2024-02-15T15:05:24;13.00;60.10
50758;DHT22;36732;47.980;11.652;2024-02-15T15:08:08;13.00;60.20
50758;DHT22;36732;47.980;11.652;2024-02-15T15:10:54;13.00;60.20
50758;DHT22;36732;47.980;11.652;2024-02-15T15:13:39;13.00;60.20
50758;DHT22;36732;47.980;11.652;2024-02-15T15:16:07;13.00;60.20
50758;DHT22;36732;47.980;11.652;2024-02-15T15:18:33;13.00;60.30
50758;DHT22;36732;47.980;11.652;2024-02-15T15:20:59;13.00;60.30
50758;DHT22;36732;47.980;11.652;2024-02-15T15:23:28;13.00;60.30
50758;DHT22;36732;47.980;11.652;2024-02-15T15:25:58;13.00;60.40
50758;DHT22;36732;47.980;11.652;2024-02-15T15:28:24;13.00;60.50
50758;DHT22;36732;47.980;11.652;2024-02-15T15:30:50;13.00;60.60
50758;DHT22;36732;47.980;11.652;2024-02-15T15:33:16;13.00;60.60
50758;DHT22;36732;47.980;11.652;2024-02-15T15:35:43;13.00;60.50
50758;DHT22;36732;47.980;11.652;2024-02-15T15:38:10;13.00;60.50
50758;DHT22;36732;47.980;11.652;2024-02-15T15:40:36;13.00;60.50
50758;DHT22;36732;47.980;11.652;2024-02-15T15:43:02;13.00;60.50
50758;DHT22;36732;47.980;11.652;2024-02-15T15:45:37;13.00;60.50
50758;DHT22;36732;47.980;11.652;2024-02-15T15:48:03;13.00;60.40